Time;durP1;ratioP1;P1;durP2;ratioP2;P2;SDS_P1;SDS_P2;PMS_P1;PMS_P2;Temp;Humidity;BMP_temperature;BMP_pressure;BME280_temperature;BME280_humidity;BME280_pressure;Samples;Min_cycle;Max_cycle;Signal;HPM_P1;HPM_P2
2021/06/27 00:01:54;;;;;;;14.10;8.60;;;21.30;75.40;;;;;;5118800;27;20074;-70
2021/06/27 00:04:20;;;;;;;15.85;9.90;;;21.30;75.50;;;;;;5113723;28;20034;-70
2021/06/27 00:06:46;;;;;;;16.48;9.63;;;21.30;75.60;;;;;;5110528;28;20103;-70
2021/06/27 00:09:12;;;;;;;19.63;9.43;;;21.30;75.80;;;;;;5098579;28;20055;-70
2021/06/27 00:11:38;;;;;;;18.48;10.68;;;21.30;75.90;;;;;;5104844;28;20070;-71
2021/06/27 00:14:04;;;;;;;16.52;10.93;;;21.30;76.00;;;;;;5114743;28;20067;-70
2021/06/27 00:16:31;;;;;;;18.20;10.60;;;21.30;76.00;;;;;;5111979;27;20027;-71
2021/06/27 00:18:59;;;;;;;18.33;10.18;;;21.20;76.10;;;;;;5104804;27;20039;-71
2021/06/27 00:21:25;;;;;;;23.50;11.50;;;21.20;76.20;;;;;;5113249;28;20398;-71
2021/06/27 00:23:51;;;;;;;20.40;10.70;;;21.20;76.30;;;;;;5112890;28;20066;-72
2021/06/27 00:26:19;;;;;;;19.67;11.40;;;21.10;76.40;;;;;;5116118;28;20063;-72
2021/06/27 00:28:46;;;;;;;21.92;11.70;;;21.00;76.40;;;;;;5120946;27;20023;-71
2021/06/27 00:31:13;;;;;;;23.17;12.35;;;21.00;76.60;;;;;;5113004;28;20103;-71
2021/06/27 00:33:39;;;;;;;19.83;11.38;;;21.10;76.60;;;;;;5118986;27;20030;-71
2021/06/27 00:36:05;;;;;;;22.15;11.25;;;21.00;76.60;;;;;;5115796;27;20118;-71
2021/06/27 00:38:32;;;;;;;17.27;11.02;;;21.00;76.80;;;;;;5104730;28;20032;-71
2021/06/27 00:40:57;;;;;;;21.95;12.07;;;21.00;76.90;;;;;;5110118;28;20040;-71
2021/06/27 00:43:23;;;;;;;22.55;11.27;;;21.00;77.00;;;;;;5112675;28;20153;-71
2021/06/27 00:45:49;;;;;;;25.52;12.35;;;20.90;77.00;;;;;;5095891;28;20498;-71
2021/06/27 00:48:15;;;;;;;19.85;11.23;;;20.90;77.00;;;;;;5119848;27;20035;-71
2021/06/27 00:50:44;;;;;;;17.63;11.60;;;20.90;77.10;;;;;;5093733;27;20967;-71
2021/06/27 00:53:10;;;;;;;18.15;10.93;;;20.90;77.10;;;;;;5114728;28;20106;-71
2021/06/27 00:55:36;;;;;;;20.85;11.60;;;20.80;77.10;;;;;;5117016;27;20055;-71
2021/06/27 00:58:03;;;;;;;23.05;11.88;;;20.80;77.30;;;;;;5111786;28;20374;-71
2021/06/27 01:00:31;;;;;;;21.35;11.70;;;20.80;77.30;;;;;;5112454;28;20028;-71
2021/06/27 01:02:58;;;;;;;20.30;11.48;;;20.80;77.40;;;;;;5110538;27;20035;-71
2021/06/27 01:05:27;;;;;;;17.85;11.00;;;20.70;77.30;;;;;;5109800;27;20032;-71
2021/06/27 01:07:53;;;;;;;21.45;11.27;;;20.70;77.30;;;;;;5106113;27;20028;-71
2021/06/27 01:10:19;;;;;;;20.05;12.35;;;20.70;77.20;;;;;;5111335;27;20043;-71
2021/06/27 01:12:45;;;;;;;25.52;12.07;;;20.60;77.30;;;;;;5116019;27;20469;-71
2021/06/27 01:15:13;;;;;;;21.73;12.38;;;20.60;77.20;;;;;;5104481;27;20122;-71
2021/06/27 01:17:43;;;;;;;20.60;12.20;;;20.60;77.30;;;;;;5112657;28;20123;-71
2021/06/27 01:20:20;;;;;;;26.75;11.65;;;20.60;77.50;;;;;;5091708;28;20033;-71
2021/06/27 01:22:47;;;;;;;23.63;12.43;;;20.60;77.70;;;;;;5114154;27;20035;-71
2021/06/27 01:25:17;;;;;;;23.45;11.82;;;20.50;77.80;;;;;;5099333;27;20023;-71
2021/06/27 01:27:42;;;;;;;19.38;12.27;;;20.50;77.90;;;;;;5114911;27;20038;-72
2021/06/27 01:30:11;;;;;;;23.23;11.90;;;20.50;77.90;;;;;;5126956;27;20039;-71
2021/06/27 01:32:45;;;;;;;21.20;12.32;;;20.50;77.90;;;;;;5109729;27;20116;-71
2021/06/27 01:35:14;;;;;;;25.17;12.00;;;20.40;77.90;;;;;;5107188;27;20115;-71
2021/06/27 01:37:41;;;;;;;21.55;12.18;;;20.40;78.00;;;;;;5107868;27;20023;-71
2021/06/27 01:40:08;;;;;;;23.98;11.43;;;20.40;78.00;;;;;;5123446;27;20031;-71
2021/06/27 01:42:34;;;;;;;21.17;11.27;;;20.30;78.00;;;;;;5120964;27;20027;-71
2021/06/27 01:45:13;;;;;;;28.50;12.95;;;20.40;78.20;;;;;;5107134;27;20467;-71
2021/06/27 01:47:42;;;;;;;29.10;12.70;;;20.30;78.30;;;;;;5104997;28;20034;-71
2021/06/27 01:50:09;;;;;;;20.60;11.85;;;20.40;78.50;;;;;;5108909;28;20040;-71
2021/06/27 01:52:35;;;;;;;22.45;12.10;;;20.30;78.60;;;;;;5092295;28;20039;-71
2021/06/27 01:55:01;;;;;;;21.30;11.57;;;20.30;78.70;;;;;;5093795;28;20042;-71
2021/06/27 01:57:27;;;;;;;22.13;11.48;;;20.30;78.70;;;;;;5113020;28;20031;-71
2021/06/27 01:59:52;;;;;;;23.30;11.93;;;20.30;78.80;;;;;;5109706;28;20038;-71
2021/06/27 02:02:21;;;;;;;22.17;11.45;;;20.20;78.70;;;;;;5111372;28;20023;-71
2021/06/27 02:04:47;;;;;;;21.98;12.07;;;20.20;78.70;;;;;;5113775;28;20037;-71
2021/06/27 02:07:13;;;;;;;24.52;12.45;;;20.20;78.70;;;;;;5106818;28;20016;-71
2021/06/27 02:09:41;;;;;;;23.48;11.75;;;20.20;78.70;;;;;;5102599;28;20067;-71
2021/06/27 02:12:09;;;;;;;24.13;11.57;;;20.10;78.70;;;;;;5109296;28;20145;-71
2021/06/27 02:14:37;;;;;;;23.45;12.07;;;20.20;78.90;;;;;;5130827;27;20041;-71
2021/06/27 02:17:03;;;;;;;24.35;11.88;;;20.10;78.80;;;;;;5116989;27;20073;-71
2021/06/27 02:19:29;;;;;;;21.70;12.20;;;20.10;78.80;;;;;;5110225;28;20517;-71
2021/06/27 02:21:55;;;;;;;23.50;11.32;;;20.10;78.80;;;;;;5109806;28;20047;-71
2021/06/27 02:24:20;;;;;;;21.35;12.70;;;20.10;78.90;;;;;;5115685;28;20025;-71
2021/06/27 02:26:46;;;;;;;23.35;11.98;;;20.10;78.90;;;;;;5123107;28;20036;-71
2021/06/27 02:29:11;;;;;;;22.17;12.20;;;20.00;78.90;;;;;;5110181;28;20032;-71
2021/06/27 02:31:37;;;;;;;19.77;11.85;;;20.00;78.90;;;;;;5112471;28;20077;-71
2021/06/27 02:34:03;;;;;;;20.50;11.40;;;20.00;78.90;;;;;;5111688;28;20765;-71
2021/06/27 02:36:29;;;;;;;18.98;10.80;;;20.00;78.80;;;;;;5109038;28;20028;-71
2021/06/27 02:38:55;;;;;;;21.88;11.80;;;19.90;78.80;;;;;;5112939;28;20035;-71
2021/06/27 02:41:21;;;;;;;20.65;12.40;;;19.90;78.90;;;;;;5108578;28;20027;-71
2021/06/27 02:43:47;;;;;;;19.67;10.85;;;19.90;79.00;;;;;;5093720;28;20043;-71
2021/06/27 02:46:13;;;;;;;21.70;11.80;;;19.90;79.10;;;;;;5109412;28;20035;-71
2021/06/27 02:48:38;;;;;;;22.17;11.60;;;19.90;79.30;;;;;;5121070;28;20020;-71
2021/06/27 02:51:05;;;;;;;22.70;11.98;;;19.80;79.40;;;;;;5121895;28;20075;-71
2021/06/27 02:53:30;;;;;;;20.20;11.55;;;19.80;79.40;;;;;;5112669;28;20043;-71
2021/06/27 02:56:08;;;;;;;20.48;11.25;;;19.80;79.40;;;;;;5117799;28;20466;-71
2021/06/27 02:58:39;;;;;;;22.63;11.77;;;19.80;79.50;;;;;;5109407;28;20387;-71
2021/06/27 03:01:05;;;;;;;21.90;10.90;;;19.80;79.60;;;;;;5128243;28;20031;-71
2021/06/27 03:03:31;;;;;;;20.70;11.00;;;19.70;79.50;;;;;;5120060;28;20646;-71
2021/06/27 03:05:57;;;;;;;20.38;11.23;;;19.70;79.60;;;;;;5118447;28;20038;-71
2021/06/27 03:08:23;;;;;;;20.10;10.82;;;19.70;79.80;;;;;;5114976;28;20200;-71
2021/06/27 03:10:48;;;;;;;19.23;10.32;;;19.70;79.90;;;;;;5090878;28;20097;-71
2021/06/27 03:13:15;;;;;;;21.58;10.60;;;19.60;80.00;;;;;;5115745;28;20031;-71
2021/06/27 03:15:41;;;;;;;19.08;10.95;;;19.60;80.20;;;;;;5119135;28;20387;-71
2021/06/27 03:18:07;;;;;;;20.67;10.88;;;19.50;80.20;;;;;;5113682;28;20032;-70
2021/06/27 03:20:32;;;;;;;26.08;10.60;;;19.60;80.40;;;;;;5114075;28;20024;-71
2021/06/27 03:22:58;;;;;;;16.50;9.73;;;19.50;80.60;;;;;;5119204;28;20032;-71
2021/06/27 03:25:28;;;;;;;21.35;11.43;;;19.50;80.80;;;;;;5112450;28;20066;-71
2021/06/27 03:28:04;;;;;;;20.27;10.55;;;19.50;81.00;;;;;;5112669;28;20048;-71
2021/06/27 03:30:33;;;;;;;16.70;9.95;;;19.50;81.10;;;;;;5110438;28;20032;-71
2021/06/27 03:33:02;;;;;;;19.63;10.45;;;19.50;81.10;;;;;;5103969;28;20051;-71
2021/06/27 03:35:28;;;;;;;20.73;10.40;;;19.50;81.30;;;;;;5116168;27;20036;-71
2021/06/27 03:40:28;;;;;;;24.65;10.73;;;19.40;81.40;;;;;;5116380;28;20035;-71
2021/06/27 03:42:54;;;;;;;20.65;10.75;;;19.40;81.60;;;;;;5113708;28;20515;-71
2021/06/27 03:45:20;;;;;;;16.60;10.38;;;19.40;81.60;;;;;;5116224;28;20023;-71
2021/06/27 03:47:46;;;;;;;21.27;10.60;;;19.40;81.80;;;;;;5115402;28;20046;-71
2021/06/27 03:50:12;;;;;;;20.42;10.40;;;19.40;82.00;;;;;;5107646;27;20474;-70
2021/06/27 03:52:38;;;;;;;17.42;10.27;;;19.40;82.10;;;;;;5134703;27;20022;-70
2021/06/27 03:55:06;;;;;;;16.67;9.80;;;19.30;82.30;;;;;;5114871;27;20028;-71
2021/06/27 03:57:31;;;;;;;21.85;9.48;;;19.30;82.50;;;;;;5115029;27;20032;-71
2021/06/27 03:59:57;;;;;;;17.30;9.73;;;19.30;82.70;;;;;;5112334;27;20030;-71
2021/06/27 04:02:23;;;;;;;17.42;9.15;;;19.30;82.80;;;;;;5115398;27;20027;-71
2021/06/27 04:04:48;;;;;;;19.48;8.80;;;19.30;83.00;;;;;;5113783;27;20031;-71
2021/06/27 04:07:14;;;;;;;18.75;8.95;;;19.30;83.20;;;;;;5117676;27;20031;-71
2021/06/27 04:09:40;;;;;;;13.35;8.88;;;19.30;83.30;;;;;;5116071;28;20056;-71
2021/06/27 04:12:07;;;;;;;20.75;9.77;;;19.30;83.50;;;;;;5113068;28;20034;-71
2021/06/27 04:14:32;;;;;;;12.00;8.65;;;19.30;83.70;;;;;;5120503;27;20038;-71
2021/06/27 04:16:58;;;;;;;15.75;8.20;;;19.30;83.80;;;;;;5117058;27;20015;-71
2021/06/27 04:19:24;;;;;;;16.25;8.10;;;19.30;84.00;;;;;;5109495;27;20473;-71
2021/06/27 04:21:50;;;;;;;16.08;7.90;;;19.20;84.10;;;;;;5118185;27;20107;-71
2021/06/27 04:24:15;;;;;;;13.07;7.63;;;19.30;84.30;;;;;;5114514;28;20368;-71
2021/06/27 04:26:41;;;;;;;12.77;7.65;;;19.20;84.50;;;;;;5114218;28;20092;-71
2021/06/27 04:29:12;;;;;;;13.85;8.48;;;19.20;84.60;;;;;;5113262;28;20491;-73
2021/06/27 04:31:40;;;;;;;16.10;8.05;;;19.20;84.80;;;;;;5114459;28;20119;-72
2021/06/27 04:34:05;;;;;;;13.98;8.15;;;19.20;85.00;;;;;;5114692;28;20355;-72
2021/06/27 04:36:31;;;;;;;16.45;8.07;;;19.20;85.20;;;;;;5114856;28;20403;-72
2021/06/27 04:38:57;;;;;;;14.13;7.93;;;19.20;85.40;;;;;;5112931;28;20080;-72
2021/06/27 04:41:23;;;;;;;13.93;8.52;;;19.30;85.60;;;;;;5110737;28;20023;-72
2021/06/27 04:43:48;;;;;;;13.68;8.07;;;19.20;85.80;;;;;;5113410;28;20055;-72
2021/06/27 04:46:16;;;;;;;20.40;7.80;;;19.20;86.00;;;;;;5112445;28;20377;-72
2021/06/27 04:48:42;;;;;;;11.82;7.53;;;19.20;86.20;;;;;;5121759;27;20027;-70
2021/06/27 04:51:07;;;;;;;14.75;7.72;;;19.20;86.40;;;;;;5119664;27;20030;-69
2021/06/27 04:53:42;;;;;;;11.90;7.38;;;19.20;86.60;;;;;;5126533;27;20426;-70
2021/06/27 04:56:07;;;;;;;12.70;7.38;;;19.30;86.90;;;;;;5125043;27;20039;-70
2021/06/27 04:58:33;;;;;;;11.35;6.95;;;19.30;86.90;;;;;;5120172;27;20030;-70
2021/06/27 05:00:59;;;;;;;16.15;7.40;;;19.30;87.20;;;;;;5120996;27;20023;-69
2021/06/27 05:03:25;;;;;;;11.73;7.72;;;19.20;87.40;;;;;;5126495;27;20034;-69
2021/06/27 05:05:50;;;;;;;15.30;7.90;;;19.30;87.60;;;;;;5113725;28;20069;-69
2021/06/27 05:08:16;;;;;;;13.35;7.28;;;19.30;87.70;;;;;;5114960;27;20367;-70
2021/06/27 05:10:42;;;;;;;16.45;8.00;;;19.40;87.70;;;;;;5111782;28;20482;-69
2021/06/27 05:13:08;;;;;;;17.05;8.60;;;19.30;87.80;;;;;;5115392;27;20032;-70
2021/06/27 05:15:33;;;;;;;16.60;8.30;;;19.30;87.80;;;;;;5122462;27;20039;-69
2021/06/27 05:17:59;;;;;;;16.88;8.13;;;19.30;87.80;;;;;;5121606;27;20024;-69
2021/06/27 05:20:25;;;;;;;15.18;8.35;;;19.30;87.80;;;;;;5113165;28;20019;-69
2021/06/27 05:22:50;;;;;;;14.73;7.35;;;19.40;87.80;;;;;;5121641;27;20042;-69
2021/06/27 05:25:16;;;;;;;17.38;7.07;;;19.40;87.70;;;;;;5111968;28;20035;-69
2021/06/27 05:27:41;;;;;;;12.27;7.00;;;19.30;87.60;;;;;;5113708;28;20016;-70
2021/06/27 05:30:08;;;;;;;11.85;6.82;;;19.30;87.60;;;;;;5113045;28;20042;-70
2021/06/27 05:32:34;;;;;;;12.05;6.93;;;19.30;87.50;;;;;;5110710;28;20028;-70
2021/06/27 05:34:59;;;;;;;12.68;6.22;;;19.30;87.40;;;;;;5111779;27;20118;-70
2021/06/27 05:37:25;;;;;;;11.68;7.13;;;19.30;87.60;;;;;;5110166;28;20031;-70
2021/06/27 05:39:50;;;;;;;10.27;5.65;;;19.30;87.80;;;;;;5092651;27;20020;-70
2021/06/27 05:42:18;;;;;;;12.70;6.65;;;19.30;87.80;;;;;;5104369;28;20096;-69
2021/06/27 05:44:44;;;;;;;12.10;6.18;;;19.30;87.80;;;;;;5128637;27;20034;-69
2021/06/27 05:47:10;;;;;;;13.52;6.97;;;19.30;87.70;;;;;;5122106;27;20035;-70
2021/06/27 05:49:36;;;;;;;10.27;5.57;;;19.40;87.90;;;;;;5109299;28;20114;-70
2021/06/27 05:52:02;;;;;;;14.93;5.82;;;19.40;87.70;;;;;;5111192;27;20051;-70
2021/06/27 05:54:27;;;;;;;9.23;6.13;;;19.40;87.60;;;;;;5118217;27;20386;-69
2021/06/27 05:56:53;;;;;;;13.73;6.32;;;19.40;88.00;;;;;;5117762;27;20053;-71
2021/06/27 05:59:19;;;;;;;12.75;7.13;;;19.40;88.00;;;;;;5121929;27;20024;-73
2021/06/27 06:01:45;;;;;;;13.68;7.63;;;19.40;87.80;;;;;;5103809;27;20109;-73
2021/06/27 06:04:10;;;;;;;17.33;7.30;;;19.50;87.90;;;;;;5118504;27;20054;-74
2021/06/27 06:06:36;;;;;;;14.23;8.10;;;19.50;87.80;;;;;;5120050;27;20062;-74
2021/06/27 06:09:02;;;;;;;8.40;4.50;;;19.50;88.00;;;;;;5125458;27;20493;-82
2021/06/27 06:11:28;;;;;;;10.43;5.25;;;19.50;87.50;;;;;;5117432;27;20042;-77
2021/06/27 06:13:54;;;;;;;10.23;5.63;;;19.50;86.30;;;;;;5115698;27;20027;-78
2021/06/27 06:16:20;;;;;;;11.13;6.15;;;19.50;85.80;;;;;;5127882;27;20031;-80
2021/06/27 06:18:46;;;;;;;15.88;6.40;;;19.60;85.80;;;;;;5114502;27;20027;-78
2021/06/27 06:21:13;;;;;;;12.15;6.10;;;19.60;85.40;;;;;;5120907;27;20031;-77
2021/06/27 06:23:40;;;;;;;10.25;5.30;;;19.60;85.10;;;;;;5116787;28;20031;-76
2021/06/27 06:26:05;;;;;;;11.18;5.18;;;19.60;84.70;;;;;;5121261;28;20028;-76
2021/06/27 06:28:31;;;;;;;10.10;6.03;;;19.60;84.40;;;;;;5127179;28;20118;-78
2021/06/27 06:30:57;;;;;;;9.48;5.15;;;19.60;84.60;;;;;;5116530;28;20039;-77
2021/06/27 06:33:23;;;;;;;11.70;5.07;;;19.60;84.50;;;;;;5120009;28;20016;-77
2021/06/27 06:35:48;;;;;;;14.15;6.88;;;19.60;84.30;;;;;;5120858;28;20580;-74
2021/06/27 06:38:14;;;;;;;9.25;5.07;;;19.60;84.60;;;;;;5112320;28;20088;-77
2021/06/27 06:40:41;;;;;;;9.52;5.00;;;19.60;85.10;;;;;;5123951;28;20118;-77
2021/06/27 06:43:06;;;;;;;10.95;5.28;;;19.70;84.50;;;;;;5119776;28;20035;-79
2021/06/27 06:45:33;;;;;;;9.38;5.07;;;19.70;84.60;;;;;;5124292;28;20024;-80
2021/06/27 06:47:59;;;;;;;13.10;6.50;;;19.70;84.50;;;;;;5119140;28;20034;-76
2021/06/27 06:50:25;;;;;;;12.63;6.40;;;19.70;84.80;;;;;;5126187;28;20031;-77
2021/06/27 06:52:51;;;;;;;13.07;4.97;;;19.70;84.90;;;;;;5119748;28;20040;-77
2021/06/27 06:55:17;;;;;;;11.32;6.07;;;19.70;84.80;;;;;;5121778;28;20087;-77
2021/06/27 06:57:44;;;;;;;9.95;5.85;;;19.80;84.80;;;;;;5117877;28;20031;-77
2021/06/27 07:00:11;;;;;;;12.30;5.70;;;19.80;84.80;;;;;;5116157;28;20023;-77
2021/06/27 07:02:37;;;;;;;8.93;5.40;;;19.80;84.60;;;;;;5116200;28;20015;-77
2021/06/27 07:05:04;;;;;;;8.65;5.60;;;19.80;85.20;;;;;;5118473;28;20088;-76
2021/06/27 07:07:29;;;;;;;9.32;5.80;;;19.90;84.50;;;;;;5123375;28;20030;-76
2021/06/27 07:09:55;;;;;;;17.27;6.20;;;19.90;85.30;;;;;;5119671;27;20188;-77
2021/06/27 07:12:21;;;;;;;12.73;6.40;;;19.90;84.90;;;;;;5113950;27;20032;-78
2021/06/27 07:14:49;;;;;;;11.10;6.10;;;19.90;85.00;;;;;;5116780;27;20031;-78
2021/06/27 07:17:15;;;;;;;10.13;4.15;;;19.90;85.00;;;;;;5120271;27;20028;-78
2021/06/27 07:19:40;;;;;;;9.30;5.93;;;19.90;84.70;;;;;;5117798;27;20031;-78
2021/06/27 07:22:06;;;;;;;22.48;5.57;;;19.90;85.00;;;;;;5117984;27;20086;-78
2021/06/27 07:24:32;;;;;;;15.98;6.00;;;20.00;85.10;;;;;;5121816;27;20126;-77
2021/06/27 07:26:57;;;;;;;11.95;6.15;;;20.00;85.20;;;;;;5119057;27;20059;-78
2021/06/27 07:29:23;;;;;;;10.18;5.88;;;20.10;85.20;;;;;;5126901;27;20025;-81
2021/06/27 07:31:49;;;;;;;9.80;5.75;;;20.10;85.40;;;;;;5125339;27;20470;-77
2021/06/27 07:34:14;;;;;;;10.80;6.30;;;20.20;84.80;;;;;;5124595;27;20024;-78
2021/06/27 07:36:42;;;;;;;8.77;4.95;;;20.30;84.40;;;;;;5117274;27;20109;-77
2021/06/27 07:39:07;;;;;;;11.55;5.38;;;20.30;84.10;;;;;;5122015;27;20131;-77
2021/06/27 07:41:33;;;;;;;10.23;5.80;;;20.40;84.00;;;;;;5117774;27;20028;-77
2021/06/27 07:43:59;;;;;;;10.60;6.13;;;20.40;83.90;;;;;;5122470;27;20057;-76
2021/06/27 07:46:25;;;;;;;12.50;4.95;;;20.50;83.70;;;;;;5120958;27;20046;-77
2021/06/27 07:48:51;;;;;;;10.93;5.43;;;20.50;83.60;;;;;;5126651;27;20118;-76
2021/06/27 07:51:17;;;;;;;10.90;4.88;;;20.50;83.50;;;;;;5146143;27;20046;-76
2021/06/27 07:53:42;;;;;;;8.48;4.80;;;20.60;83.40;;;;;;5146967;27;20014;-76
2021/06/27 07:56:08;;;;;;;5.70;3.45;;;20.60;83.40;;;;;;5140198;27;20027;-77
2021/06/27 07:58:34;;;;;;;10.60;5.40;;;20.70;83.20;;;;;;5117275;27;20023;-79
2021/06/27 08:01:03;;;;;;;7.72;5.07;;;20.60;83.80;;;;;;5120003;27;20040;-75
2021/06/27 08:03:28;;;;;;;9.48;5.70;;;20.70;83.90;;;;;;5119571;27;20464;-77
2021/06/27 08:05:54;;;;;;;13.27;7.72;;;20.70;83.70;;;;;;5119655;27;20474;-77
2021/06/27 08:08:20;;;;;;;14.88;6.43;;;20.70;83.70;;;;;;5124005;27;20023;-77
2021/06/27 08:10:46;;;;;;;8.85;4.82;;;20.80;84.40;;;;;;5121094;27;20436;-78
2021/06/27 08:13:12;;;;;;;11.32;6.03;;;20.80;83.70;;;;;;5118493;27;20122;-78
2021/06/27 08:15:37;;;;;;;9.25;5.30;;;20.80;84.00;;;;;;5118059;27;20031;-78
2021/06/27 08:18:04;;;;;;;11.80;6.30;;;20.80;84.10;;;;;;5124867;27;20110;-78
2021/06/27 08:20:29;;;;;;;14.13;5.40;;;20.90;84.20;;;;;;5120185;27;20433;-78
2021/06/27 08:22:55;;;;;;;10.10;5.07;;;20.90;84.00;;;;;;5127986;27;20023;-79
2021/06/27 08:25:22;;;;;;;27.77;11.43;;;20.90;83.90;;;;;;5127803;27;20043;-77
2021/06/27 08:27:48;;;;;;;29.38;10.70;;;21.00;84.30;;;;;;5120815;27;20026;-78
2021/06/27 08:30:16;;;;;;;27.02;9.80;;;21.00;84.20;;;;;;5124998;27;20371;-78
2021/06/27 08:32:47;;;;;;;29.65;11.48;;;21.10;83.90;;;;;;5114067;27;20039;-77
2021/06/27 08:35:16;;;;;;;38.13;13.30;;;21.10;83.90;;;;;;5114267;27;20053;-77
2021/06/27 08:37:42;;;;;;;23.10;9.68;;;21.10;83.90;;;;;;5124172;27;20122;-77
2021/06/27 08:40:09;;;;;;;14.50;5.13;;;21.20;84.00;;;;;;5120664;27;20054;-79
2021/06/27 08:42:35;;;;;;;16.15;7.75;;;21.20;83.90;;;;;;5125935;27;20042;-77
2021/06/27 08:45:03;;;;;;;13.27;6.55;;;21.20;84.30;;;;;;5122699;27;20039;-76
2021/06/27 08:47:29;;;;;;;18.58;8.93;;;21.20;84.40;;;;;;5122888;27;20493;-77
2021/06/27 08:49:55;;;;;;;15.02;7.90;;;21.30;84.70;;;;;;5115935;27;20051;-78
2021/06/27 08:52:22;;;;;;;12.48;6.63;;;21.30;84.60;;;;;;5116928;27;20027;-77
2021/06/27 08:54:49;;;;;;;13.85;5.70;;;21.30;84.70;;;;;;5118308;27;20027;-77
2021/06/27 08:57:16;;;;;;;12.82;5.45;;;21.30;84.50;;;;;;5113146;27;20027;-77
2021/06/27 08:59:43;;;;;;;10.13;5.63;;;21.40;84.80;;;;;;5115831;27;20067;-77
2021/06/27 09:02:09;;;;;;;8.38;4.97;;;21.30;84.80;;;;;;5122096;27;20035;-77
2021/06/27 09:04:40;;;;;;;13.15;6.35;;;21.40;84.80;;;;;;5123166;27;20370;-78
2021/06/27 09:07:28;;;;;;;12.63;6.07;;;21.40;84.90;;;;;;5120319;27;20016;-74
2021/06/27 09:09:56;;;;;;;13.30;5.45;;;21.50;85.00;;;;;;5112210;27;20047;-77
2021/06/27 09:12:22;;;;;;;10.15;5.80;;;21.50;84.90;;;;;;5119947;27;20063;-77
2021/06/27 09:14:52;;;;;;;9.32;4.68;;;21.50;84.80;;;;;;5121852;27;20027;-78
2021/06/27 09:17:18;;;;;;;15.68;5.53;;;21.60;85.00;;;;;;5111007;27;20488;-78
2021/06/27 09:20:02;;;;;;;8.30;3.67;;;21.60;85.10;;;;;;5120397;27;20051;-78
2021/06/27 09:22:40;;;;;;;9.98;4.03;;;21.60;84.80;;;;;;5111671;27;20023;-77
2021/06/27 09:25:15;;;;;;;9.63;4.25;;;21.70;84.80;;;;;;5125304;27;20019;-77
2021/06/27 09:27:42;;;;;;;10.52;5.55;;;21.60;84.90;;;;;;5106805;27;20032;-80
2021/06/27 09:30:20;;;;;;;6.78;4.20;;;21.70;85.00;;;;;;5122020;27;20027;-87
2021/06/27 09:33:00;;;;;;;6.60;4.15;;;21.80;84.70;;;;;;5122211;27;20042;-86
2021/06/27 09:35:48;;;;;;;6.75;3.85;;;21.80;84.50;;;;;;5103590;28;20028;-86
2021/06/27 09:38:18;;;;;;;9.38;4.78;;;21.90;84.50;;;;;;5110494;27;20093;-80
2021/06/27 09:40:44;;;;;;;9.43;4.85;;;21.90;84.70;;;;;;5118947;27;20384;-79
2021/06/27 09:43:10;;;;;;;5.78;3.45;;;21.90;84.50;;;;;;5116796;27;20015;-76
2021/06/27 09:45:49;;;;;;;5.82;3.58;;;21.90;84.50;;;;;;5101995;27;20034;-80
2021/06/27 09:48:15;;;;;;;6.20;3.97;;;22.00;84.50;;;;;;5128818;27;20031;-76
2021/06/27 09:50:42;;;;;;;7.93;3.75;;;22.00;84.20;;;;;;5119415;27;20038;-78
2021/06/27 09:53:41;;;;;;;11.90;4.85;;;22.00;84.10;;;;;;5124936;27;20099;-75
2021/06/27 09:56:08;;;;;;;6.22;3.92;;;22.10;84.00;;;;;;5100413;28;20039;-77
2021/06/27 09:58:34;;;;;;;8.23;3.92;;;22.10;84.10;;;;;;5108479;28;20069;-74
2021/06/27 10:01:00;;;;;;;10.20;4.30;;;22.10;84.00;;;;;;5119096;27;20031;-77
2021/06/27 10:03:41;;;;;;;7.30;4.38;;;22.10;84.00;;;;;;5110450;27;20011;-76
2021/06/27 10:06:08;;;;;;;10.68;4.28;;;22.20;84.00;;;;;;5116850;27;20157;-75
2021/06/27 10:08:34;;;;;;;9.00;4.80;;;22.20;83.80;;;;;;5108570;27;20417;-78
2021/06/27 10:11:26;;;;;;;8.45;5.72;;;22.30;83.80;;;;;;5118649;27;20039;-78
2021/06/27 10:13:54;;;;;;;7.00;4.72;;;22.30;83.50;;;;;;5107445;28;20134;-77
2021/06/27 10:16:33;;;;;;;6.50;4.30;;;22.30;83.70;;;;;;5112698;28;20032;-76
2021/06/27 10:19:00;;;;;;;5.05;3.42;;;22.40;83.60;;;;;;5106916;28;20521;-77
2021/06/27 10:21:28;;;;;;;5.15;3.08;;;22.40;83.70;;;;;;5111497;27;20024;-77
2021/06/27 10:23:55;;;;;;;9.32;4.50;;;22.40;83.40;;;;;;5110631;28;20027;-78
2021/06/27 10:26:25;;;;;;;6.93;4.60;;;22.40;83.40;;;;;;5109096;28;20034;-77
2021/06/27 10:28:52;;;;;;;8.95;4.32;;;22.40;83.40;;;;;;5111277;28;20040;-77
2021/06/27 10:31:22;;;;;;;3.00;1.80;;;22.50;83.60;;;;;;5112066;28;20088;-78
2021/06/27 10:33:49;;;;;;;6.32;3.55;;;22.50;83.10;;;;;;5108289;28;20020;-78
2021/06/27 10:36:45;;;;;;;2.50;1.70;;;22.50;83.30;;;;;;5111304;28;20059;-76
2021/06/27 10:39:14;;;;;;;6.70;4.00;;;22.50;83.20;;;;;;5093712;28;20122;-78
2021/06/27 10:42:03;;;;;;;7.53;4.05;;;22.50;83.20;;;;;;5117657;28;20060;-77
2021/06/27 10:44:37;;;;;;;8.20;4.78;;;22.60;83.40;;;;;;5113565;28;20065;-77
2021/06/27 10:47:04;;;;;;;6.40;4.25;;;22.60;83.10;;;;;;5113440;28;20040;-78
2021/06/27 10:49:30;;;;;;;9.63;5.05;;;22.50;83.30;;;;;;5117271;27;20035;-77
2021/06/27 10:52:11;;;;;;;3.33;2.45;;;22.60;83.20;;;;;;5126170;27;20487;-77
2021/06/27 10:54:44;;;;;;;7.93;4.03;;;22.60;83.20;;;;;;5118999;27;20046;-77
2021/06/27 10:57:14;;;;;;;7.65;4.38;;;22.60;83.30;;;;;;5126346;27;20059;-77
2021/06/27 10:59:50;;;;;;;5.80;3.60;;;22.70;83.40;;;;;;5126546;27;20088;-77
2021/06/27 11:02:25;;;;;;;6.78;4.70;;;22.70;82.90;;;;;;5115544;27;20059;-78
2021/06/27 11:04:53;;;;;;;6.35;3.88;;;22.70;82.90;;;;;;5118835;27;20488;-76
2021/06/27 11:07:35;;;;;;;9.48;4.30;;;22.80;82.80;;;;;;5120509;27;20409;-77
2021/06/27 11:10:20;;;;;;;5.35;3.65;;;22.80;82.50;;;;;;5121717;27;20047;-78
2021/06/27 11:12:58;;;;;;;4.82;3.00;;;22.90;82.60;;;;;;5121540;27;20031;-78
2021/06/27 11:15:37;;;;;;;5.78;3.58;;;22.90;82.40;;;;;;5120045;27;20027;-78
2021/06/27 11:18:07;;;;;;;8.82;4.10;;;22.90;82.20;;;;;;5117787;27;20036;-80
2021/06/27 11:20:55;;;;;;;4.13;2.88;;;22.90;82.30;;;;;;5111287;28;20028;-89
2021/06/27 11:23:51;;;;;;;7.13;3.30;;;22.90;82.20;;;;;;5098252;27;20447;-84
2021/06/27 11:26:41;;;;;;;3.70;2.53;;;23.00;82.00;;;;;;5103982;28;20031;-87
2021/06/27 11:29:22;;;;;;;7.55;4.40;;;23.00;82.20;;;;;;5117971;27;20042;-82
2021/06/27 11:32:09;;;;;;;4.18;2.83;;;23.00;81.80;;;;;;5125933;27;20042;-78
2021/06/27 11:34:37;;;;;;;6.25;3.58;;;23.00;81.80;;;;;;5118749;27;20055;-85
2021/06/27 11:37:18;;;;;;;2.65;2.08;;;23.00;81.80;;;;;;5121726;27;20031;-87
2021/06/27 11:39:44;;;;;;;5.93;3.67;;;23.00;81.90;;;;;;5120894;27;20041;-88
2021/06/27 11:42:22;;;;;;;8.23;4.00;;;22.90;81.70;;;;;;5117360;27;20027;-81
2021/06/27 11:45:06;;;;;;;5.47;3.13;;;23.00;81.60;;;;;;5128262;27;20043;-77
2021/06/27 11:47:50;;;;;;;7.28;3.63;;;23.00;81.80;;;;;;5114410;27;20031;-75
2021/06/27 11:50:20;;;;;;;8.07;4.28;;;23.00;81.70;;;;;;5124453;27;20084;-79
2021/06/27 11:52:56;;;;;;;6.03;3.88;;;23.00;81.60;;;;;;5113567;28;20036;-78
2021/06/27 11:56:04;;;;;;;21.98;4.03;;;23.00;81.60;;;;;;5104265;27;20015;-78
2021/06/27 11:58:31;;;;;;;4.53;2.90;;;23.00;81.70;;;;;;5114152;28;20118;-79
2021/06/27 12:00:56;;;;;;;6.90;4.38;;;23.00;81.70;;;;;;5118027;27;20031;-79
2021/06/27 12:03:23;;;;;;;5.13;2.55;;;23.00;81.30;;;;;;5134021;27;20034;-79
2021/06/27 12:06:02;;;;;;;8.45;3.70;;;23.00;81.50;;;;;;5133911;27;20032;-78
2021/06/27 12:08:29;;;;;;;6.07;3.80;;;23.00;81.00;;;;;;5113084;27;20031;-78
2021/06/27 12:10:57;;;;;;;3.67;2.47;;;23.00;81.00;;;;;;5117799;27;20134;-78
2021/06/27 12:13:27;;;;;;;3.13;2.05;;;23.00;81.30;;;;;;5114961;28;20084;-78
2021/06/27 12:15:59;;;;;;;5.25;3.50;;;23.00;81.10;;;;;;5122609;27;20148;-79
2021/06/27 12:18:27;;;;;;;5.30;3.08;;;23.10;81.00;;;;;;5122722;27;20083;-79
2021/06/27 12:21:04;;;;;;;5.10;3.50;;;23.00;80.90;;;;;;5115793;27;20031;-79
2021/06/27 12:23:40;;;;;;;3.90;2.70;;;23.10;80.70;;;;;;5114143;28;20383;-79
2021/06/27 12:26:18;;;;;;;6.32;2.92;;;23.10;80.70;;;;;;5116741;27;20023;-79
2021/06/27 12:28:49;;;;;;;7.22;3.22;;;23.10;80.70;;;;;;5115678;28;20027;-78
2021/06/27 12:31:26;;;;;;;3.60;2.55;;;23.10;80.60;;;;;;5113473;28;20035;-79
2021/06/27 12:33:53;;;;;;;5.30;3.30;;;23.00;80.60;;;;;;5094072;28;20032;-79
2021/06/27 12:36:29;;;;;;;3.88;2.58;;;23.10;80.70;;;;;;5113415;28;20029;-78
2021/06/27 12:39:02;;;;;;;3.42;2.38;;;23.10;80.70;;;;;;5123930;27;20031;-79
2021/06/27 12:41:31;;;;;;;5.20;3.28;;;23.10;80.70;;;;;;5113103;27;20099;-79
2021/06/27 12:44:05;;;;;;;4.90;2.90;;;23.10;80.60;;;;;;5131092;27;20046;-79
2021/06/27 12:46:43;;;;;;;4.90;2.40;;;23.20;80.60;;;;;;5096650;28;20060;-78
2021/06/27 12:49:19;;;;;;;7.97;3.35;;;23.10;80.40;;;;;;5114488;28;20042;-78